createdAt,value
2019-01-17T00:00:00.220Z,5.40
2019-01-17T00:02:47.216Z,5.40
2019-01-17T00:05:34.083Z,5.50
2019-01-17T00:08:22.494Z,5.60
2019-01-17T00:11:13.717Z,5.60
2019-01-17T00:13:50.821Z,5.60
2019-01-17T00:16:31.103Z,5.60
2019-01-17T00:19:17.797Z,5.60
2019-01-17T00:22:05.767Z,5.60
2019-01-17T00:24:52.389Z,5.60
2019-01-17T00:27:39.419Z,5.60
2019-01-17T00:30:37.401Z,5.60
2019-01-17T00:33:30.051Z,5.60
2019-01-17T00:36:10.736Z,5.60
2019-01-17T00:38:57.799Z,5.60
2019-01-17T00:41:46.140Z,5.60
2019-01-17T00:44:46.328Z,5.60
2019-01-17T00:47:49.868Z,5.60
2019-01-17T00:50:32.506Z,5.60
2019-01-17T00:53:26.698Z,5.60
2019-01-17T00:56:18.210Z,5.60
2019-01-17T00:59:12.735Z,5.70
2019-01-17T01:01:57.231Z,5.70
2019-01-17T01:04:45.480Z,5.70
2019-01-17T01:07:47.199Z,5.80
2019-01-17T01:10:29.931Z,5.90
2019-01-17T01:13:16.664Z,5.90
2019-01-17T01:16:12.011Z,5.90
2019-01-17T01:19:03.131Z,6.00
2019-01-17T01:21:54.223Z,6.00
2019-01-17T01:24:44.531Z,6.10
2019-01-17T01:27:35.883Z,6.10
2019-01-17T01:30:29.003Z,6.10
2019-01-17T01:33:17.317Z,6.10
2019-01-17T01:36:04.135Z,6.10
2019-01-17T01:39:04.995Z,6.10
2019-01-17T01:41:59.100Z,6.10
2019-01-17T01:44:46.048Z,6.10
2019-01-17T01:47:33.121Z,6.10
2019-01-17T01:50:30.320Z,6.10
2019-01-17T01:53:07.791Z,6.10
2019-01-17T01:55:37.174Z,6.10
2019-01-17T01:58:07.164Z,6.10
2019-01-17T02:00:36.558Z,6.10
2019-01-17T02:03:05.939Z,6.10
2019-01-17T02:05:35.347Z,6.10
2019-01-17T02:08:04.955Z,6.10
2019-01-17T02:10:34.384Z,6.10
2019-01-17T02:13:03.882Z,6.10
2019-01-17T02:15:33.268Z,6.10
2019-01-17T02:18:02.678Z,6.00
2019-01-17T02:20:32.063Z,6.00
2019-01-17T02:23:01.708Z,6.00
2019-01-17T02:25:31.095Z,6.00
2019-01-17T02:28:00.484Z,6.10
2019-01-17T02:30:29.873Z,6.10
2019-01-17T02:32:59.246Z,6.10
2019-01-17T02:35:28.764Z,6.10
2019-01-17T02:37:58.128Z,6.00
2019-01-17T02:40:27.519Z,6.00
2019-01-17T02:42:56.940Z,6.00
2019-01-17T02:45:26.328Z,6.00
2019-01-17T02:47:55.812Z,6.00
2019-01-17T02:50:25.218Z,5.90
2019-01-17T02:52:54.616Z,6.00
2019-01-17T02:55:24.040Z,5.90
2019-01-17T02:57:53.487Z,5.90
2019-01-17T03:00:22.924Z,5.90
2019-01-17T03:02:52.288Z,5.90
2019-01-17T03:05:21.656Z,5.80
2019-01-17T03:07:51.069Z,5.90
2019-01-17T03:10:20.432Z,5.80
2019-01-17T03:12:49.839Z,5.80
2019-01-17T03:15:19.144Z,5.80
2019-01-17T03:17:48.551Z,5.90
2019-01-17T03:20:17.960Z,5.80
2019-01-17T03:22:47.363Z,5.80
2019-01-17T03:25:16.980Z,5.80
2019-01-17T03:27:46.360Z,5.80
2019-01-17T03:30:17.727Z,5.80
2019-01-17T03:32:47.178Z,5.80
2019-01-17T03:35:16.558Z,5.90
2019-01-17T03:37:46.012Z,5.90
2019-01-17T03:40:17.300Z,6.00
2019-01-17T03:42:46.663Z,6.00
2019-01-17T03:45:16.365Z,6.00
2019-01-17T03:47:45.731Z,6.00
2019-01-17T03:50:15.863Z,6.10
2019-01-17T03:52:45.189Z,6.20
2019-01-17T03:55:17.502Z,6.20
2019-01-17T03:57:46.916Z,6.20
2019-01-17T04:00:20.681Z,6.20
2019-01-17T04:02:50.043Z,6.30
2019-01-17T04:05:19.474Z,6.30
2019-01-17T04:07:48.856Z,6.40
2019-01-17T04:10:18.273Z,6.40
2019-01-17T04:12:47.751Z,6.40
2019-01-17T04:15:17.132Z,6.50
2019-01-17T04:17:46.556Z,6.50
2019-01-17T04:20:17.555Z,6.50
2019-01-17T04:22:46.957Z,6.40
2019-01-17T04:25:16.466Z,6.30
2019-01-17T04:27:45.869Z,6.30
2019-01-17T04:30:17.326Z,6.20
2019-01-17T04:32:46.720Z,6.20
2019-01-17T04:35:16.192Z,6.10
2019-01-17T04:37:45.567Z,6.20
2019-01-17T04:40:14.952Z,6.20
2019-01-17T04:42:44.349Z,6.30
2019-01-17T04:45:14.963Z,6.30
2019-01-17T04:47:44.437Z,6.30
2019-01-17T04:50:14.457Z,6.30
2019-01-17T04:52:43.827Z,6.20
2019-01-17T04:55:15.080Z,6.20
2019-01-17T04:57:44.508Z,6.10
2019-01-17T05:00:19.225Z,6.00
2019-01-17T05:02:48.708Z,5.90
2019-01-17T05:05:18.063Z,5.80
2019-01-17T05:07:47.484Z,5.80
2019-01-17T05:10:17.048Z,5.80
2019-01-17T05:12:46.452Z,5.80
2019-01-17T05:15:15.840Z,5.70
2019-01-17T05:17:45.223Z,5.70
2019-01-17T05:20:16.005Z,5.70
2019-01-17T05:22:45.475Z,5.70
2019-01-17T05:25:14.925Z,5.70
2019-01-17T05:27:44.307Z,5.70
2019-01-17T05:30:15.819Z,5.70
2019-01-17T05:32:45.214Z,5.70
2019-01-17T05:35:14.932Z,5.70
2019-01-17T05:37:44.329Z,5.80
2019-01-17T05:40:18.839Z,5.80
2019-01-17T05:42:48.256Z,5.80
2019-01-17T05:45:17.903Z,5.80
2019-01-17T05:47:47.321Z,5.70
2019-01-17T05:50:17.632Z,5.80
2019-01-17T05:52:47.049Z,5.80
2019-01-17T05:55:19.995Z,5.80
2019-01-17T05:57:47.522Z,5.80
2019-01-17T06:00:18.860Z,5.90
2019-01-17T06:02:48.374Z,5.90
2019-01-17T06:05:18.608Z,5.90
2019-01-17T06:07:47.992Z,5.90
2019-01-17T06:10:17.388Z,6.00
2019-01-17T06:12:46.771Z,6.00
2019-01-17T06:15:19.068Z,5.90
2019-01-17T06:17:48.472Z,5.90
2019-01-17T06:20:17.961Z,5.80
2019-01-17T06:22:47.328Z,5.70
2019-01-17T06:25:16.750Z,5.70
2019-01-17T06:27:46.148Z,5.60
2019-01-17T06:30:16.176Z,5.60
2019-01-17T06:32:45.559Z,5.60
2019-01-17T06:35:15.044Z,5.60
2019-01-17T06:37:44.548Z,5.60
2019-01-17T06:40:17.099Z,5.60
2019-01-17T06:42:46.467Z,5.50
2019-01-17T06:45:15.851Z,5.50
2019-01-17T06:47:45.264Z,5.50
2019-01-17T06:50:14.676Z,5.40
2019-01-17T06:52:44.096Z,5.40
2019-01-17T06:55:13.472Z,5.40
2019-01-17T06:57:42.930Z,5.40
2019-01-17T07:00:13.699Z,5.40
2019-01-17T07:02:43.083Z,5.50
2019-01-17T07:05:12.923Z,5.50
2019-01-17T07:07:42.305Z,5.50
2019-01-17T07:10:13.870Z,5.50
2019-01-17T07:12:43.248Z,5.50
2019-01-17T07:15:12.796Z,5.50
2019-01-17T07:17:42.183Z,5.50
2019-01-17T07:20:12.999Z,5.50
2019-01-17T07:22:42.323Z,5.50
2019-01-17T07:25:11.881Z,5.50
2019-01-17T07:27:41.527Z,5.50
2019-01-17T07:30:17.097Z,5.60
2019-01-17T07:32:46.470Z,5.60
2019-01-17T07:35:15.951Z,5.70
2019-01-17T07:37:45.363Z,5.80
2019-01-17T07:40:15.156Z,5.80
2019-01-17T07:42:44.610Z,5.80
2019-01-17T07:45:19.456Z,5.80
2019-01-17T07:47:48.901Z,5.90
2019-01-17T07:50:18.287Z,5.90
2019-01-17T07:52:47.703Z,6.00
2019-01-17T07:55:17.105Z,6.10
2019-01-17T07:57:46.871Z,6.20
2019-01-17T08:00:18.500Z,6.20
2019-01-17T08:02:47.947Z,6.30
2019-01-17T08:05:17.458Z,6.30
2019-01-17T08:07:46.943Z,6.40
2019-01-17T08:10:17.615Z,6.40
2019-01-17T08:12:47.308Z,6.50
2019-01-17T08:15:17.542Z,6.50
2019-01-17T08:17:46.939Z,6.50
2019-01-17T08:20:18.851Z,6.60
2019-01-17T08:22:48.603Z,6.70
2019-01-17T08:25:18.179Z,6.70
2019-01-17T08:27:47.599Z,6.80
2019-01-17T08:30:19.332Z,6.90
2019-01-17T08:32:49.154Z,7.00
2019-01-17T08:35:18.875Z,7.10
2019-01-17T08:37:48.263Z,7.10
2019-01-17T08:40:26.469Z,7.20
2019-01-17T08:42:56.160Z,7.30
2019-01-17T08:45:25.579Z,7.30
2019-01-17T08:47:54.961Z,7.40
2019-01-17T08:50:24.454Z,7.50
2019-01-17T08:52:53.831Z,7.50
2019-01-17T08:55:23.209Z,7.60
2019-01-17T08:57:52.622Z,7.70
2019-01-17T09:00:23.340Z,7.80
2019-01-17T09:02:53.190Z,7.80
2019-01-17T09:05:22.574Z,7.80
2019-01-17T09:07:52.048Z,8.00
2019-01-17T09:10:26.479Z,8.00
2019-01-17T09:12:56.255Z,8.10
2019-01-17T09:15:27.912Z,8.10
2019-01-17T09:17:57.319Z,8.20
2019-01-17T09:20:26.702Z,8.30
2019-01-17T09:22:56.096Z,8.30
2019-01-17T09:25:25.482Z,8.40
2019-01-17T09:27:54.888Z,8.40
2019-01-17T09:30:24.263Z,8.50
2019-01-17T09:32:53.679Z,8.60
2019-01-17T09:35:23.088Z,8.60
2019-01-17T09:37:52.469Z,8.70
2019-01-17T09:40:22.394Z,8.80
2019-01-17T09:42:51.873Z,8.90
2019-01-17T09:45:22.387Z,8.90
2019-01-17T09:47:51.770Z,8.90
2019-01-17T09:50:23.065Z,9.00
2019-01-17T09:52:52.442Z,9.00
2019-01-17T09:55:21.830Z,9.00
2019-01-17T09:57:51.247Z,9.00
2019-01-17T10:00:23.519Z,9.00
2019-01-17T10:02:53.052Z,9.00
2019-01-17T10:05:22.443Z,9.00
2019-01-17T10:07:51.995Z,9.10
2019-01-17T10:10:21.683Z,9.10
2019-01-17T10:12:51.128Z,9.10
2019-01-17T10:15:41.067Z,9.00
2019-01-17T10:18:55.880Z,9.00
2019-01-17T10:21:48.929Z,9.00
2019-01-17T10:25:06.158Z,9.10
2019-01-17T10:28:01.074Z,9.20
2019-01-17T10:31:12.280Z,9.20
2019-01-17T10:34:21.176Z,9.20
2019-01-17T10:37:36.345Z,9.30
2019-01-17T10:41:13.571Z,9.30
2019-01-17T10:44:07.607Z,9.30
2019-01-17T10:47:13.943Z,9.40
2019-01-17T10:50:15.223Z,9.40
2019-01-17T10:53:34.575Z,9.40
2019-01-17T10:56:30.298Z,9.50
2019-01-17T10:59:26.139Z,9.40
2019-01-17T11:02:23.349Z,9.40
2019-01-17T11:05:32.723Z,9.40
2019-01-17T11:08:21.101Z,9.40
2019-01-17T11:11:43.263Z,9.50
2019-01-17T11:14:24.843Z,9.40
2019-01-17T11:17:44.170Z,9.40
2019-01-17T11:20:52.806Z,9.40
2019-01-17T11:23:45.818Z,9.50
2019-01-17T11:26:34.285Z,9.40
2019-01-17T11:29:34.070Z,9.40
2019-01-17T11:32:39.215Z,9.40
2019-01-17T11:35:55.475Z,9.40
2019-01-17T11:39:04.353Z,9.30
2019-01-17T11:42:17.287Z,9.20
2019-01-17T11:45:01.594Z,9.20
2019-01-17T11:47:51.798Z,9.20
2019-01-17T11:51:10.119Z,9.30
2019-01-17T11:54:09.079Z,9.20
2019-01-17T11:57:34.246Z,9.20
2019-01-17T12:00:37.867Z,9.10
2019-01-17T12:04:01.892Z,9.20
2019-01-17T12:06:31.547Z,9.20
2019-01-17T12:09:00.984Z,9.20
2019-01-17T12:11:30.359Z,9.10
2019-01-17T12:13:59.766Z,9.10
2019-01-17T12:16:29.399Z,9.10
2019-01-17T12:18:58.790Z,9.10
2019-01-17T12:21:28.129Z,9.00
2019-01-17T12:23:57.511Z,8.90
2019-01-17T12:26:26.897Z,8.80
2019-01-17T12:28:56.299Z,8.80
2019-01-17T12:31:25.695Z,8.80
2019-01-17T12:33:55.092Z,8.80
2019-01-17T12:36:24.508Z,8.70
2019-01-17T12:38:53.905Z,8.70
2019-01-17T12:41:23.284Z,8.80
2019-01-17T12:43:52.683Z,8.80
2019-01-17T12:46:22.074Z,8.90
2019-01-17T12:48:51.743Z,8.90
2019-01-17T12:51:21.395Z,8.90
2019-01-17T12:53:50.808Z,8.80
2019-01-17T12:56:20.183Z,8.70
2019-01-17T12:58:49.620Z,8.50
2019-01-17T13:01:19.007Z,8.40
2019-01-17T13:03:49.191Z,8.40
2019-01-17T13:06:18.585Z,8.30
2019-01-17T13:08:47.970Z,8.30
2019-01-17T13:11:17.931Z,8.20
2019-01-17T13:13:47.311Z,8.20
2019-01-17T13:16:16.803Z,8.20
2019-01-17T13:18:46.451Z,8.10
2019-01-17T13:21:16.180Z,8.10
2019-01-17T13:23:45.578Z,8.10
2019-01-17T13:26:14.999Z,8.10
2019-01-17T13:28:44.422Z,8.00
2019-01-17T13:31:13.812Z,8.00
2019-01-17T13:33:43.892Z,7.90
2019-01-17T13:36:13.577Z,7.90
2019-01-17T13:38:42.995Z,7.80
2019-01-17T13:41:12.665Z,7.70
2019-01-17T13:43:42.084Z,7.60
2019-01-17T13:46:11.556Z,7.50
2019-01-17T13:48:40.990Z,7.40
2019-01-17T13:51:10.383Z,7.30
2019-01-17T13:53:39.829Z,7.10
2019-01-17T13:56:09.283Z,7.10
2019-01-17T13:58:38.948Z,7.00
2019-01-17T14:01:08.393Z,7.00
2019-01-17T14:03:37.831Z,6.90
2019-01-17T14:06:07.243Z,6.90
2019-01-17T14:08:36.616Z,6.90
2019-01-17T14:11:05.999Z,6.80
2019-01-17T14:13:35.411Z,6.80
2019-01-17T14:16:04.939Z,6.70
2019-01-17T14:18:34.687Z,6.70
2019-01-17T14:21:04.071Z,6.60
2019-01-17T14:23:34.210Z,6.70
2019-01-17T14:26:03.612Z,6.70
2019-01-17T14:28:33.093Z,6.70
2019-01-17T14:31:02.558Z,6.60
2019-01-17T14:33:32.177Z,6.60
2019-01-17T14:36:01.719Z,6.60
2019-01-17T14:38:31.103Z,6.60
2019-01-17T14:41:00.573Z,6.60
2019-01-17T14:43:30.004Z,6.60
2019-01-17T14:45:59.523Z,6.60
2019-01-17T14:48:29.028Z,6.60
2019-01-17T14:50:58.474Z,6.60
2019-01-17T14:53:28.036Z,6.60
2019-01-17T14:55:57.606Z,6.60
2019-01-17T14:58:27.345Z,6.60
2019-01-17T15:00:56.829Z,6.60
2019-01-17T15:03:26.277Z,6.60
2019-01-17T15:05:55.756Z,6.50
2019-01-17T15:08:25.242Z,6.50
2019-01-17T15:10:54.608Z,6.50
2019-01-17T15:13:24.086Z,6.50
2019-01-17T15:15:53.527Z,6.40
2019-01-17T15:18:23.040Z,6.40
2019-01-17T15:20:53.341Z,6.40
2019-01-17T15:23:23.093Z,6.40
2019-01-17T15:25:52.563Z,6.50
2019-01-17T15:28:22.338Z,6.50
2019-01-17T15:30:52.896Z,6.50
2019-01-17T15:33:22.323Z,6.50
2019-01-17T15:35:52.938Z,6.50
2019-01-17T15:38:22.689Z,6.40
2019-01-17T15:40:53.265Z,6.40
2019-01-17T15:43:25.771Z,6.40
2019-01-17T15:45:55.203Z,6.40
2019-01-17T15:48:25.041Z,6.40
2019-01-17T15:50:54.804Z,6.40
2019-01-17T15:53:24.516Z,6.30
2019-01-17T15:55:53.891Z,6.30
2019-01-17T15:58:23.828Z,6.30
2019-01-17T16:00:55.141Z,6.30
2019-01-17T16:03:24.804Z,6.20
2019-01-17T16:05:55.134Z,6.20
2019-01-17T16:08:24.945Z,6.20
2019-01-17T16:10:54.809Z,6.10
2019-01-17T16:13:24.543Z,6.10
2019-01-17T16:15:54.027Z,6.10
2019-01-17T16:18:23.772Z,6.10
2019-01-17T16:20:53.682Z,6.10
2019-01-17T16:23:23.203Z,6.10
2019-01-17T16:25:53.070Z,6.10
2019-01-17T16:28:22.515Z,6.10
2019-01-17T16:30:53.168Z,6.00
2019-01-17T16:33:22.920Z,6.00
2019-01-17T16:35:52.449Z,6.00
2019-01-17T16:38:22.977Z,6.00
2019-01-17T16:40:52.457Z,6.00
2019-01-17T16:43:22.369Z,6.10
2019-01-17T16:45:52.452Z,6.00
2019-01-17T16:48:21.847Z,6.10
2019-01-17T16:50:51.298Z,6.10
2019-01-17T16:53:20.676Z,6.10
2019-01-17T16:55:50.084Z,6.00
2019-01-17T16:58:19.505Z,6.00
2019-01-17T17:00:49.591Z,6.00
2019-01-17T17:03:18.995Z,6.00
2019-01-17T17:05:48.547Z,6.00
2019-01-17T17:08:18.385Z,5.90
2019-01-17T17:10:47.797Z,5.90
2019-01-17T17:13:17.240Z,5.90
2019-01-17T17:15:46.723Z,5.90
2019-01-17T17:18:16.299Z,5.90
2019-01-17T17:20:46.015Z,5.90
2019-01-17T17:23:15.548Z,5.90
2019-01-17T17:25:45.403Z,5.80
2019-01-17T17:28:15.211Z,5.80
2019-01-17T17:30:44.740Z,5.80
2019-01-17T17:33:14.530Z,5.70
2019-01-17T17:35:44.061Z,5.70
2019-01-17T17:38:13.541Z,5.70
2019-01-17T17:40:43.468Z,5.70
2019-01-17T17:43:12.922Z,5.60
2019-01-17T17:45:42.444Z,5.60
2019-01-17T17:48:11.989Z,5.60
2019-01-17T17:50:41.692Z,5.60
2019-01-17T17:53:11.213Z,5.60
2019-01-17T17:55:42.121Z,5.60
2019-01-17T17:58:13.462Z,5.60
2019-01-17T18:01:07.872Z,5.50
2019-01-17T18:03:37.408Z,5.50
2019-01-17T18:06:06.936Z,5.50
2019-01-17T18:08:36.495Z,5.50
2019-01-17T18:11:05.975Z,5.50
2019-01-17T18:13:35.498Z,5.40
2019-01-17T18:16:05.149Z,5.40
2019-01-17T18:18:34.568Z,5.40
2019-01-17T18:21:04.011Z,5.40
2019-01-17T18:23:33.803Z,5.40
2019-01-17T18:26:04.894Z,5.40
2019-01-17T18:28:34.305Z,5.30
2019-01-17T18:31:04.589Z,5.30
2019-01-17T18:33:34.173Z,5.30
2019-01-17T18:36:03.700Z,5.30
2019-01-17T18:38:33.157Z,5.30
2019-01-17T18:41:02.613Z,5.30
2019-01-17T18:43:32.235Z,5.40
2019-01-17T18:46:01.630Z,5.40
2019-01-17T18:48:31.179Z,5.40
2019-01-17T18:51:00.622Z,5.40
2019-01-17T18:53:30.076Z,5.40
2019-01-17T18:55:59.534Z,5.40
2019-01-17T18:58:29.361Z,5.40
2019-01-17T19:00:59.497Z,5.40
2019-01-17T19:03:28.896Z,5.40
2019-01-17T19:05:58.369Z,5.40
2019-01-17T19:08:28.083Z,5.30
2019-01-17T19:10:57.717Z,5.30
2019-01-17T19:13:27.104Z,5.20
2019-01-17T19:15:56.567Z,5.20
2019-01-17T19:18:25.969Z,5.10
2019-01-17T19:20:55.379Z,5.10
2019-01-17T19:23:24.782Z,5.00
2019-01-17T19:25:54.086Z,5.00
2019-01-17T19:28:23.491Z,5.00
2019-01-17T19:30:52.783Z,4.90
2019-01-17T19:33:22.124Z,4.90
2019-01-17T19:35:51.768Z,4.90
2019-01-17T19:38:21.413Z,4.80
2019-01-17T19:40:50.790Z,4.90
2019-01-17T19:43:20.174Z,4.80
2019-01-17T19:45:49.596Z,4.80
2019-01-17T19:48:18.988Z,4.70
2019-01-17T19:50:48.399Z,4.70
2019-01-17T19:53:17.778Z,4.60
2019-01-17T19:55:47.252Z,4.60
2019-01-17T19:58:16.622Z,4.60
2019-01-17T20:00:46.011Z,4.50
2019-01-17T20:03:15.407Z,4.50
2019-01-17T20:05:45.118Z,4.50
2019-01-17T20:08:14.564Z,4.60
2019-01-17T20:10:43.947Z,4.60
2019-01-17T20:13:13.377Z,4.70
2019-01-17T20:15:42.748Z,4.70
2019-01-17T20:18:12.177Z,4.80
2019-01-17T20:20:41.562Z,4.80
2019-01-17T20:23:11.151Z,4.80
2019-01-17T20:25:40.641Z,4.80
2019-01-17T20:28:10.025Z,4.80
2019-01-17T20:30:39.427Z,4.80
2019-01-17T20:33:09.145Z,4.80
2019-01-17T20:35:38.539Z,4.80
2019-01-17T20:38:08.115Z,4.80
2019-01-17T20:40:37.531Z,4.80
2019-01-17T20:43:06.911Z,4.80
2019-01-17T20:45:36.307Z,4.90
2019-01-17T20:48:06.311Z,4.80
2019-01-17T20:50:35.767Z,4.60
2019-01-17T20:53:05.300Z,4.30
2019-01-17T20:55:34.679Z,4.00
2019-01-17T20:58:04.193Z,3.60
2019-01-17T21:00:43.813Z,3.40
2019-01-17T21:03:15.436Z,3.20
2019-01-17T21:05:44.823Z,3.10
2019-01-17T21:08:14.244Z,3.00
2019-01-17T21:10:44.555Z,3.00
2019-01-17T21:13:13.910Z,3.00
2019-01-17T21:15:43.323Z,3.00
2019-01-17T21:18:12.642Z,3.10
2019-01-17T21:20:41.970Z,3.10
2019-01-17T21:23:11.348Z,3.10
2019-01-17T21:25:40.740Z,3.20
2019-01-17T21:28:10.115Z,3.20
2019-01-17T21:30:39.607Z,3.30
2019-01-17T21:33:08.951Z,3.30
2019-01-17T21:35:38.371Z,3.30
2019-01-17T21:38:07.768Z,3.20
2019-01-17T21:40:37.145Z,3.30
2019-01-17T21:43:06.538Z,3.20
2019-01-17T21:45:35.915Z,3.30
2019-01-17T21:48:05.235Z,3.30
2019-01-17T21:50:34.627Z,3.30
2019-01-17T21:53:04.136Z,3.30
2019-01-17T21:55:33.511Z,3.20
2019-01-17T21:58:03.271Z,3.20
2019-01-17T22:00:32.946Z,3.10
2019-01-17T22:03:02.368Z,3.00
2019-01-17T22:05:32.083Z,3.00
2019-01-17T22:08:01.447Z,2.90
2019-01-17T22:10:30.863Z,2.90
2019-01-17T22:13:00.244Z,2.90
2019-01-17T22:15:29.646Z,2.80
2019-01-17T22:17:59.023Z,2.80
2019-01-17T22:20:28.435Z,2.80
2019-01-17T22:22:57.804Z,2.80
2019-01-17T22:25:27.237Z,2.80
2019-01-17T22:27:56.627Z,2.70
2019-01-17T22:30:27.191Z,2.70
2019-01-17T22:32:56.778Z,2.70
2019-01-17T22:35:26.595Z,2.70
2019-01-17T22:37:55.990Z,2.70
2019-01-17T22:40:25.394Z,2.70
2019-01-17T22:42:55.272Z,2.70
2019-01-17T22:45:29.831Z,2.70
2019-01-17T22:47:59.583Z,2.70
2019-01-17T22:50:28.956Z,2.80
2019-01-17T22:52:58.336Z,2.90
2019-01-17T22:55:27.743Z,2.90
2019-01-17T22:57:57.130Z,3.00
2019-01-17T23:00:49.229Z,3.00
2019-01-17T23:03:20.046Z,3.00
2019-01-17T23:05:49.485Z,3.10
2019-01-17T23:08:19.023Z,3.10
2019-01-17T23:10:48.732Z,3.10
2019-01-17T23:13:18.403Z,3.10
2019-01-17T23:15:47.784Z,3.20
2019-01-17T23:18:17.447Z,3.20
2019-01-17T23:20:46.747Z,3.20
2019-01-17T23:23:16.276Z,3.30
2019-01-17T23:25:45.653Z,3.30
2019-01-17T23:28:15.027Z,3.30
2019-01-17T23:30:44.435Z,3.40
2019-01-17T23:33:14.588Z,3.40
2019-01-17T23:35:43.987Z,3.40
2019-01-17T23:38:14.040Z,3.40
2019-01-17T23:40:43.482Z,3.40
2019-01-17T23:43:12.855Z,3.40
2019-01-17T23:45:42.508Z,3.50
2019-01-17T23:48:11.907Z,3.40
2019-01-17T23:50:41.643Z,3.40
2019-01-17T23:53:11.044Z,3.20
2019-01-17T23:55:40.434Z,3.00
2019-01-17T23:58:09.875Z,2.90
